createdAt,value
2023-02-13T17:02:29.002Z,9.40
2023-02-13T17:04:01.286Z,9.80
2023-02-13T17:05:33.633Z,5.80
2023-02-13T17:07:10.461Z,9.40
2023-02-13T17:08:42.587Z,12.00
2023-02-13T17:10:18.661Z,8.00
2023-02-13T17:11:51.729Z,10.00
2023-02-13T17:13:23.960Z,9.80
2023-02-13T17:14:57.797Z,9.00
2023-02-13T17:16:29.736Z,8.80
2023-02-13T17:18:01.772Z,8.20
2023-02-13T17:19:33.722Z,7.80
2023-02-13T17:21:05.998Z,8.00
2023-02-13T17:22:42.318Z,7.20
2023-02-13T17:24:17.172Z,7.60
2023-02-13T17:25:50.049Z,7.20
2023-02-13T17:27:22.883Z,8.00
2023-02-13T17:28:54.750Z,8.60
2023-02-13T17:30:29.740Z,7.00
2023-02-13T17:32:02.150Z,7.00
2023-02-13T17:33:38.504Z,8.40
2023-02-13T17:35:11.956Z,10.60
2023-02-13T17:36:44.052Z,8.80
2023-02-13T17:38:16.283Z,6.00
2023-02-13T17:39:48.703Z,7.00
2023-02-13T17:41:20.836Z,7.00
2023-02-13T17:42:54.691Z,8.20
2023-02-13T17:44:26.887Z,8.20
2023-02-13T17:46:01.242Z,7.00
2023-02-13T17:47:33.712Z,7.60
2023-02-13T17:49:05.750Z,6.40
2023-02-13T17:50:38.054Z,7.00
2023-02-13T17:52:13.727Z,7.60
2023-02-13T17:53:46.661Z,5.80
2023-02-13T17:55:26.590Z,8.00
2023-02-13T17:56:58.614Z,7.80
2023-02-13T17:58:30.606Z,6.00
2023-02-13T18:00:05.009Z,9.00
2023-02-13T18:01:44.464Z,8.20
2023-02-13T18:03:16.599Z,8.80
2023-02-13T18:04:48.927Z,8.00
2023-02-13T18:06:20.821Z,10.20
2023-02-13T18:07:52.843Z,9.20
2023-02-13T18:09:24.979Z,0.60
2023-02-13T18:10:57.212Z,6.40
2023-02-13T18:12:29.297Z,9.20
2023-02-13T18:14:02.337Z,7.00
2023-02-13T18:15:44.233Z,7.80
2023-02-13T18:17:16.299Z,6.80
2023-02-13T18:18:48.281Z,5.60
2023-02-13T18:20:20.917Z,6.20
2023-02-13T18:21:52.985Z,8.80
2023-02-13T18:23:24.852Z,6.40
2023-02-13T18:24:57.140Z,10.80
2023-02-13T18:26:29.218Z,16.00
2023-02-13T18:28:01.171Z,18.00
2023-02-13T18:29:36.517Z,21.40
2023-02-13T18:31:10.066Z,23.00
2023-02-13T18:32:42.126Z,31.00
2023-02-13T18:34:13.973Z,34.50
2023-02-13T18:35:46.039Z,36.50
2023-02-13T18:37:18.595Z,36.75
2023-02-13T18:38:51.553Z,44.75
2023-02-13T18:40:23.618Z,47.00
2023-02-13T18:41:55.626Z,52.00
2023-02-13T18:43:27.485Z,61.25
2023-02-13T18:44:59.374Z,62.25
2023-02-13T18:46:31.335Z,65.40
2023-02-13T18:48:03.360Z,76.00
2023-02-13T18:49:35.969Z,79.25
2023-02-13T18:51:07.910Z,84.00
2023-02-13T18:52:39.805Z,89.75
2023-02-13T18:54:12.201Z,90.25
2023-02-13T18:55:44.188Z,92.25
2023-02-13T18:57:16.198Z,97.00
2023-02-13T18:58:48.270Z,99.25
2023-02-13T19:00:22.582Z,100.50
2023-02-13T19:01:54.572Z,100.50
2023-02-13T19:03:26.516Z,103.25
2023-02-13T19:04:58.434Z,106.50
2023-02-13T19:06:30.446Z,109.00
2023-02-13T19:08:02.351Z,104.00
2023-02-13T19:09:40.367Z,102.25
2023-02-13T19:11:17.149Z,102.00
2023-02-13T19:12:49.248Z,101.00
2023-02-13T19:14:22.106Z,102.75
2023-02-13T19:15:54.127Z,106.75
2023-02-13T19:17:26.080Z,100.50
2023-02-13T19:19:01.059Z,97.75
2023-02-13T19:20:32.901Z,101.50
2023-02-13T19:22:04.821Z,92.75
2023-02-13T19:23:36.929Z,96.25
2023-02-13T19:25:08.841Z,93.75
2023-02-13T19:26:40.837Z,101.25
2023-02-13T19:28:12.841Z,88.25
2023-02-13T19:29:44.679Z,93.00
2023-02-13T19:31:29.169Z,95.50
2023-02-13T19:33:01.191Z,93.00
2023-02-13T19:34:33.151Z,83.75
2023-02-13T19:36:06.855Z,87.00
2023-02-13T19:37:44.063Z,76.25
2023-02-13T19:39:16.273Z,84.00
2023-02-13T19:40:48.122Z,81.00
2023-02-13T19:42:20.105Z,78.00
2023-02-13T19:43:53.719Z,78.25
2023-02-13T19:45:25.699Z,73.50
2023-02-13T19:46:57.625Z,73.20
2023-02-13T19:48:29.951Z,63.20
2023-02-13T19:50:02.086Z,72.80
2023-02-13T19:51:34.346Z,57.60
2023-02-13T19:53:07.834Z,60.60
2023-02-13T19:54:40.287Z,61.00
2023-02-13T19:56:12.349Z,57.00
2023-02-13T19:57:44.172Z,57.75
2023-02-13T19:59:16.116Z,60.00
2023-02-13T20:00:49.294Z,56.00
2023-02-13T20:02:21.837Z,58.00
2023-02-13T20:03:54.227Z,58.75
2023-02-13T20:05:26.206Z,56.25
2023-02-13T20:06:58.512Z,62.00
2023-02-13T20:08:30.449Z,61.25
2023-02-13T20:10:02.403Z,60.50
2023-02-13T20:11:34.328Z,59.50
2023-02-13T20:13:06.196Z,61.50
2023-02-13T20:14:38.105Z,62.25
2023-02-13T20:16:12.559Z,64.00
2023-02-13T20:17:44.789Z,60.00
2023-02-13T20:19:16.649Z,57.00
2023-02-13T20:20:48.696Z,52.33
2023-02-13T20:22:20.665Z,62.50
2023-02-13T20:23:52.745Z,64.00
2023-02-13T20:25:25.880Z,65.25
2023-02-13T20:26:59.112Z,64.00
2023-02-13T20:28:31.043Z,63.00
2023-02-13T20:30:07.283Z,60.25
2023-02-13T20:31:41.649Z,75.00
2023-02-13T20:33:13.715Z,73.00
2023-02-13T20:34:59.205Z,81.75
2023-02-13T20:36:31.994Z,87.25
2023-02-13T20:38:05.306Z,93.25
2023-02-13T20:39:37.137Z,101.25
2023-02-13T20:41:12.894Z,101.50
2023-02-13T20:42:44.843Z,108.75
2023-02-13T20:44:19.226Z,99.75
2023-02-13T20:45:51.068Z,108.50
2023-02-13T20:47:23.061Z,117.50
2023-02-13T20:48:54.894Z,124.00
2023-02-13T20:50:26.838Z,126.75
2023-02-13T20:51:58.875Z,126.00
2023-02-13T20:53:31.137Z,129.00
2023-02-13T20:55:03.311Z,158.50
2023-02-13T20:56:35.235Z,166.75
2023-02-13T20:58:07.151Z,138.33
2023-02-13T20:59:39.140Z,141.00
2023-02-13T21:01:14.387Z,147.33
2023-02-13T21:02:46.423Z,137.67
2023-02-13T21:04:20.279Z,141.33
2023-02-13T21:05:52.292Z,142.33
2023-02-13T21:07:24.187Z,141.00
2023-02-13T21:08:56.328Z,143.33
2023-02-13T21:10:28.169Z,141.00
2023-02-13T21:12:00.040Z,163.67
2023-02-13T21:13:33.249Z,150.00
2023-02-13T21:15:05.396Z,142.33
2023-02-13T21:16:39.072Z,142.67
2023-02-13T21:18:11.023Z,144.67
2023-02-13T21:19:42.906Z,145.67
2023-02-13T21:21:14.827Z,139.33
2023-02-13T21:22:47.614Z,147.67
2023-02-13T21:24:22.332Z,143.33
2023-02-13T21:25:54.314Z,140.33
2023-02-13T21:27:26.483Z,134.00
2023-02-13T21:28:58.538Z,130.33
2023-02-13T21:30:30.550Z,135.33
2023-02-13T21:32:02.631Z,139.67
2023-02-13T21:33:34.697Z,128.33
2023-02-13T21:35:07.250Z,130.67
2023-02-13T21:36:39.303Z,124.00
2023-02-13T21:38:11.221Z,128.67
2023-02-13T21:39:43.064Z,126.33
2023-02-13T21:41:16.188Z,127.33
2023-02-13T21:42:48.015Z,126.00
2023-02-13T21:44:19.969Z,124.67
2023-02-13T21:45:51.908Z,128.67
2023-02-13T21:47:23.857Z,133.67
2023-02-13T21:49:05.648Z,133.00
2023-02-13T21:50:37.912Z,122.67
2023-02-13T21:52:09.792Z,129.00
2023-02-13T21:53:41.884Z,127.00
2023-02-13T21:55:13.783Z,122.67
2023-02-13T21:56:45.949Z,150.25
2023-02-13T21:58:17.864Z,138.00
2023-02-13T21:59:50.185Z,135.33
2023-02-13T22:01:33.015Z,130.67
2023-02-13T22:03:05.040Z,124.75
2023-02-13T22:04:36.913Z,120.75
2023-02-13T22:06:10.216Z,122.75
2023-02-13T22:08:05.241Z,110.00
2023-02-13T22:09:37.069Z,119.25
2023-02-13T22:11:08.915Z,111.50
2023-02-13T22:12:40.794Z,99.50
2023-02-13T22:14:16.025Z,102.00
2023-02-13T22:15:49.041Z,95.75
2023-02-13T22:17:22.267Z,96.75
2023-02-13T22:18:54.744Z,97.25
2023-02-13T22:20:26.596Z,89.00
2023-02-13T22:21:58.656Z,96.25
2023-02-13T22:23:30.506Z,84.75
2023-02-13T22:25:02.426Z,84.25
2023-02-13T22:26:35.790Z,79.25
2023-02-13T22:28:07.665Z,79.25
2023-02-13T22:29:41.168Z,81.00
2023-02-13T22:31:13.413Z,76.50
2023-02-13T22:32:45.261Z,73.50
2023-02-13T22:34:17.244Z,71.75
2023-02-13T22:35:49.161Z,70.40
2023-02-13T22:37:21.010Z,76.80
2023-02-13T22:38:53.070Z,66.00
2023-02-13T22:40:24.993Z,67.80
2023-02-13T22:41:56.927Z,66.80
2023-02-13T22:43:28.809Z,65.40
2023-02-13T22:45:00.691Z,60.40
2023-02-13T22:46:33.034Z,53.50
2023-02-13T22:48:05.893Z,54.75
2023-02-13T22:49:37.863Z,57.75
2023-02-13T22:51:10.373Z,52.75
2023-02-13T22:52:42.261Z,51.75
2023-02-13T22:54:14.097Z,53.50
2023-02-13T22:55:45.986Z,51.75
2023-02-13T22:57:17.872Z,45.75
2023-02-13T22:58:49.873Z,46.75
2023-02-13T23:00:22.902Z,46.50
2023-02-13T23:01:54.764Z,37.00
2023-02-13T23:03:26.829Z,43.50
2023-02-13T23:04:58.707Z,43.00
2023-02-13T23:06:30.545Z,38.75
2023-02-13T23:08:02.486Z,39.50
2023-02-13T23:09:34.375Z,38.00
2023-02-13T23:11:26.765Z,41.50
2023-02-13T23:12:58.678Z,36.25
2023-02-13T23:14:30.605Z,37.00
2023-02-13T23:16:02.445Z,35.25
2023-02-13T23:17:53.150Z,38.25
2023-02-13T23:19:25.622Z,39.50
2023-02-13T23:20:57.748Z,38.00
2023-02-13T23:22:29.704Z,35.50
2023-02-13T23:24:01.598Z,35.75
2023-02-13T23:25:34.028Z,31.50
2023-02-13T23:27:05.942Z,33.75
2023-02-13T23:28:37.768Z,32.25
2023-02-13T23:30:10.627Z,32.75
2023-02-13T23:31:42.587Z,33.50
2023-02-13T23:33:14.509Z,37.50
2023-02-13T23:34:46.509Z,44.00
